Blue River, Canada
Current Conditions -  °F | °C
As of 6:50 PM on Sunday 23 Nov 2014 (Local Time) from CYRV Reporting Station
Light Snow Light Snow  
Wind Chill: 32°   Ceiling: 2100
Heat Index: 32°   Visibility: 1mi
Dew Point: 32°   Wind: 0mph
Humidity: 100%   Direction: NA
Pressure: 29.99"   Gusts: NA
Location:  52.11°N, 119.31°W
Report Text: CYRV 240250Z AUTO 00000KT 1SM -SN -FZUP FEW005 OVC021 00/M00 A2999 RMK ICG INTMT SLP176
Loading
Personal Weather Stations






























Interactive Weather Map New forecast layout! Learn more

10-Day Weather Forecast

Advertisements
Track Severe Weather on mobile